This is the latest recevied weather packets stored in our database for station/object OE9FWV-10. If no packets are shown the sender has not sent any weather packets the latest 10 day(s).
| Time | Temp. | Humidity | Pressure | Rain* | Wind** | Luminosity | Snow |
|---|---|---|---|---|---|---|---|
| 1777475545 | 29.44° C | 21% | 1020.8 hPa | - | - | - | - |
| 1777474645 | 32.78° C | 19% | 1020.9 hPa | - | - | - | - |
| 1777473745 | 33.33° C | 19% | 1020.9 hPa | - | - | - | - |
| 1777472845 | 28.89° C | 23% | 1021 hPa | - | - | - | - |
| 1777471945 | 28.89° C | 23% | 1021.1 hPa | - | - | - | - |
| 1777471045 | 28.89° C | 22% | 1021.2 hPa | - | - | - | - |
| 1777470145 | 30° C | 21% | 1021.1 hPa | - | - | - | - |
| 1777469245 | 29.44° C | 21% | 1021.2 hPa | - | - | - | - |
| 1777468345 | 30° C | 21% | 1021.3 hPa | - | - | - | - |
| 1777467444 | 31.11° C | 19% | 1021.3 hPa | - | - | - | - |
| 1777466544 | 33.89° C | 17% | 1021.3 hPa | - | - | - | - |
| 1777465644 | 36.67° C | 16% | 1021.4 hPa | - | - | - | - |
| 1777464744 | 34.44° C | 17% | 1021.5 hPa | - | - | - | - |
| 1777463844 | 35° C | 18% | 1021.6 hPa | - | - | - | - |
| 1777462944 | 33.33° C | 19% | 1021.7 hPa | - | - | - | - |
| 1777462044 | 32.78° C | 20% | 1021.8 hPa | - | - | - | - |
| 1777461144 | 28.89° C | 23% | 1021.8 hPa | - | - | - | - |
| 1777460244 | 28.33° C | 24% | 1022 hPa | - | - | - | - |
| 1777459344 | 28.89° C | 24% | 1022.1 hPa | - | - | - | - |
| 1777458444 | 28.33° C | 24% | 1022 hPa | - | - | - | - |
| 1777457544 | 27.22° C | 25% | 1022 hPa | - | - | - | - |
| 1777456644 | 26.67° C | 25% | 1022.1 hPa | - | - | - | - |
| 1777455743 | 26.67° C | 26% | 1022.1 hPa | - | - | - | - |
| 1777454843 | 26.11° C | 26% | 1022.1 hPa | - | - | - | - |
| 1777453943 | 26.11° C | 26% | 1022 hPa | - | - | - | - |
* Rain since midnight (hover to see other rain measurements)
** Current wind speed in m/s (hover to see current wind gust speed)